Time;durP1;ratioP1;P1;durP2;ratioP2;P2;SDS_P1;SDS_P2;PMS_P1;PMS_P2;Temp;Humidity;BMP_temperature;BMP_pressure;BME280_temperature;BME280_humidity;BME280_pressure;Samples;Min_cycle;Max_cycle;Signal;HPM_P1;HPM_P2
2021/05/23 00:01:17;;;;;;;7.47;4.20;;;;;;;8.75;81.91;99425.69;4827190;29;20105;-61
2021/05/23 00:03:50;;;;;;;6.07;3.95;;;;;;;8.75;81.94;99420.59;4827075;29;20498;-62
2021/05/23 00:06:23;;;;;;;7.20;3.75;;;;;;;8.73;82.38;99418.03;4827090;29;20073;-62
2021/05/23 00:08:52;;;;;;;5.65;3.63;;;;;;;8.82;82.28;99418.91;4827035;29;20138;-62
2021/05/23 00:11:24;;;;;;;7.75;3.72;;;;;;;8.95;82.34;99418.91;4827006;29;20050;-62
2021/05/23 00:13:56;;;;;;;7.20;4.07;;;;;;;9.05;82.65;99425.72;4827565;29;20442;-62
2021/05/23 00:16:28;;;;;;;7.43;3.90;;;;;;;9.08;82.70;99425.72;4826698;29;20115;-62
2021/05/23 00:18:58;;;;;;;6.93;3.78;;;;;;;9.11;82.55;99429.97;4826832;29;20072;-62
2021/05/23 00:21:27;;;;;;;6.03;3.20;;;;;;;9.06;82.23;99437.63;4827137;29;20058;-61
2021/05/23 00:23:59;;;;;;;5.53;3.08;;;;;;;9.13;82.44;99439.31;4826720;29;20413;-62
2021/05/23 00:26:32;;;;;;;7.25;3.20;;;;;;;9.19;81.77;99441.84;4826846;29;20498;-62
2021/05/23 00:29:00;;;;;;;6.05;3.00;;;;;;;9.21;82.44;99447.78;4826602;29;20051;-62
2021/05/23 00:31:32;;;;;;;5.78;2.75;;;;;;;9.17;82.37;99446.09;4826718;29;20078;-61
2021/05/23 00:34:05;;;;;;;5.93;3.20;;;;;;;9.14;81.87;99451.19;4826945;29;20476;-61
2021/05/23 00:36:34;;;;;;;6.47;3.17;;;;;;;9.20;82.74;99458.84;4826680;29;20408;-61
2021/05/23 00:39:04;;;;;;;6.37;3.60;;;;;;;9.23;82.42;99447.81;4826556;29;20586;-61
2021/05/23 00:41:34;;;;;;;8.15;3.53;;;;;;;9.18;82.32;99447.81;4826392;29;20065;-62
2021/05/23 00:44:06;;;;;;;5.60;3.15;;;;;;;9.15;81.92;99446.94;4826538;29;20051;-61
2021/05/23 00:46:38;;;;;;;6.25;3.58;;;;;;;9.22;82.15;99443.56;4826562;29;20121;-62
2021/05/23 00:49:08;;;;;;;8.35;4.25;;;;;;;9.22;82.53;99438.47;4824887;29;20584;-62
2021/05/23 00:51:37;;;;;;;6.18;3.50;;;;;;;9.26;82.72;99435.91;4826939;29;20058;-62
2021/05/23 00:54:09;;;;;;;7.03;3.17;;;;;;;9.26;82.38;99428.28;4826197;29;20121;-62
2021/05/23 00:56:42;;;;;;;4.72;2.83;;;;;;;9.30;82.20;99422.34;4826193;29;20512;-62
2021/05/23 00:59:13;;;;;;;4.70;2.38;;;;;;;9.30;82.00;99429.13;4825995;29;20078;-62
2021/05/23 01:02:02;;;;;;;5.43;2.70;;;;;;;9.24;81.92;99426.56;4826289;29;20062;-62
2021/05/23 01:04:34;;;;;;;6.43;2.40;;;;;;;9.33;82.02;99422.34;4824961;29;20131;-61
2021/05/23 01:07:06;;;;;;;5.30;2.83;;;;;;;9.36;81.82;99418.94;4826264;29;20069;-62
2021/05/23 01:09:37;;;;;;;5.88;2.60;;;;;;;9.39;81.71;99417.25;4825947;29;20065;-62
2021/05/23 01:12:41;;;;;;;4.70;2.60;;;;;;;9.26;82.21;99424.91;4826388;29;20047;-62
2021/05/23 01:15:13;;;;;;;4.05;2.60;;;;;;;9.23;82.43;99428.31;4826050;29;20066;-62
2021/05/23 01:17:47;;;;;;;5.72;2.75;;;;;;;9.22;82.46;99431.69;4826071;29;20066;-62
2021/05/23 01:20:26;;;;;;;5.85;2.75;;;;;;;9.31;82.47;99424.03;4825987;29;20077;-62
2021/05/23 01:23:16;;;;;;;6.25;2.83;;;;;;;9.36;82.79;99422.34;4825701;29;20104;-62
2021/05/23 01:25:51;;;;;;;5.18;2.40;;;;;;;9.33;82.76;99429.16;4825913;29;20046;-62
2021/05/23 01:28:24;;;;;;;5.00;2.65;;;;;;;9.33;83.06;99426.59;4825686;29;20115;-62
2021/05/23 01:30:53;;;;;;;5.05;2.42;;;;;;;9.44;82.75;99424.91;4825802;29;20054;-62
2021/05/23 01:33:25;;;;;;;5.25;2.80;;;;;;;9.42;83.13;99426.59;4825773;29;20095;-62
2021/05/23 01:35:58;;;;;;;5.93;2.92;;;;;;;9.45;83.01;99431.69;4826089;29;20066;-62
2021/05/23 01:38:31;;;;;;;5.25;2.60;;;;;;;9.52;83.16;99437.63;4825719;29;20062;-62
2021/05/23 01:41:04;;;;;;;5.68;2.92;;;;;;;9.52;83.11;99437.63;4825928;29;20082;-62
2021/05/23 01:43:37;;;;;;;4.82;3.05;;;;;;;9.55;82.21;99442.72;4825693;29;20091;-62
2021/05/23 01:46:10;;;;;;;5.93;3.03;;;;;;;9.58;83.50;99448.66;4825639;29;20046;-62
2021/05/23 01:48:40;;;;;;;5.80;3.10;;;;;;;9.65;83.25;99444.41;4825357;29;20551;-62
2021/05/23 01:51:12;;;;;;;5.78;3.00;;;;;;;9.66;83.22;99438.47;4825511;29;20133;-62
2021/05/23 01:53:44;;;;;;;6.00;2.80;;;;;;;9.59;83.31;99444.41;4825522;29;20066;-62
2021/05/23 01:56:18;;;;;;;7.10;3.20;;;;;;;9.53;82.91;99439.31;4825446;29;20058;-62
2021/05/23 01:58:50;;;;;;;4.78;2.90;;;;;;;9.55;83.47;99442.72;4825776;29;20058;-62
2021/05/23 02:01:25;;;;;;;6.68;3.05;;;;;;;9.59;83.54;99439.31;4825099;29;20131;-62
2021/05/23 02:03:58;;;;;;;5.82;3.40;;;;;;;9.52;83.75;99427.44;4825378;29;20066;-62
2021/05/23 02:06:30;;;;;;;5.53;3.53;;;;;;;9.51;83.13;99435.91;4825349;29;20050;-62
2021/05/23 02:09:03;;;;;;;5.60;2.70;;;;;;;9.62;83.85;99444.44;4825120;29;20153;-62
2021/05/23 02:11:36;;;;;;;7.72;4.75;;;;;;;9.69;83.67;99441.88;4825230;29;20054;-61
2021/05/23 02:14:08;;;;;;;7.20;4.45;;;;;;;9.70;83.64;99430.81;4824135;29;20123;-62
2021/05/23 02:16:40;;;;;;;6.20;3.25;;;;;;;9.76;83.44;99432.50;4825234;29;20054;-62
2021/05/23 02:19:12;;;;;;;5.30;3.20;;;;;;;9.79;83.46;99440.16;4825171;29;20050;-62
2021/05/23 02:21:41;;;;;;;5.72;3.13;;;;;;;9.76;82.78;99428.28;4825140;29;20097;-61
2021/05/23 02:24:13;;;;;;;6.20;3.20;;;;;;;9.71;82.94;99418.94;4825604;29;20046;-62
2021/05/23 02:26:46;;;;;;;7.40;2.92;;;;;;;9.71;83.25;99422.31;4824828;29;20051;-62
2021/05/23 02:29:18;;;;;;;4.80;2.65;;;;;;;9.77;83.75;99424.00;4825117;29;20051;-62
2021/05/23 02:31:47;;;;;;;6.60;2.80;;;;;;;9.78;82.94;99411.28;4824138;29;20463;-62
2021/05/23 02:34:19;;;;;;;4.60;2.73;;;;;;;9.78;83.29;99413.81;4825308;29;20051;-62
2021/05/23 02:36:58;;;;;;;5.50;2.72;;;;;;;9.82;82.93;99438.44;4824749;29;20050;-62
2021/05/23 02:39:30;;;;;;;4.97;2.78;;;;;;;9.85;83.35;99427.41;4824956;29;20072;-63
2021/05/23 02:42:04;;;;;;;4.88;2.78;;;;;;;9.88;83.65;99415.50;4824589;29;20471;-62
2021/05/23 02:44:33;;;;;;;6.32;3.15;;;;;;;9.92;82.97;99423.97;4824928;29;20141;-62
2021/05/23 02:47:05;;;;;;;6.18;2.97;;;;;;;9.90;83.35;99421.44;4824797;29;20058;-62
2021/05/23 02:49:37;;;;;;;7.38;3.53;;;;;;;9.93;83.15;99410.38;4824461;29;20065;-63
2021/05/23 02:52:06;;;;;;;6.28;3.25;;;;;;;9.92;82.92;99409.53;4825088;29;20069;-62
2021/05/23 02:54:39;;;;;;;7.53;3.35;;;;;;;9.92;82.96;99413.78;4824736;29;20401;-62
2021/05/23 02:57:09;;;;;;;5.75;3.17;;;;;;;9.99;83.09;99425.66;4824732;29;20123;-62
2021/05/23 02:59:41;;;;;;;6.60;3.47;;;;;;;10.04;83.42;99423.94;4825011;29;20148;-63
2021/05/23 03:02:11;;;;;;;6.38;3.60;;;;;;;10.03;83.61;99418.00;4824639;29;20050;-62
2021/05/23 03:04:49;;;;;;;6.70;3.20;;;;;;;10.08;83.66;99413.72;4824386;29;20494;-62
2021/05/23 03:07:21;;;;;;;4.85;3.08;;;;;;;10.03;83.12;99412.88;4824630;29;20555;-62
2021/05/23 03:09:53;;;;;;;7.22;3.10;;;;;;;10.12;83.82;99427.38;4824662;29;20062;-62
2021/05/23 03:12:24;;;;;;;6.63;3.40;;;;;;;10.14;82.78;99451.16;4824565;29;20078;-62
2021/05/23 03:14:54;;;;;;;9.18;4.05;;;;;;;10.12;83.39;99436.72;4824368;29;20528;-62
2021/05/23 03:17:23;;;;;;;8.30;3.47;;;;;;;10.11;82.78;99417.97;4824842;29;20046;-62
2021/05/23 03:19:55;;;;;;;6.25;3.67;;;;;;;10.06;83.10;99419.69;4824489;29;20051;-62
2021/05/23 03:22:26;;;;;;;8.55;3.45;;;;;;;10.08;83.00;99421.38;4828040;29;20059;-62
2021/05/23 03:24:58;;;;;;;5.65;3.47;;;;;;;10.08;83.42;99430.72;4827657;29;20099;-63
2021/05/23 03:27:31;;;;;;;5.75;3.05;;;;;;;10.10;83.59;99423.94;4827594;29;20060;-63
2021/05/23 03:30:06;;;;;;;6.47;3.38;;;;;;;10.04;82.95;99429.03;4827726;29;20050;-62
2021/05/23 03:32:38;;;;;;;6.38;3.47;;;;;;;10.03;82.91;99434.97;4827883;29;20404;-63
2021/05/23 03:35:11;;;;;;;6.50;3.20;;;;;;;10.08;82.95;99433.28;4827595;29;20078;-62
2021/05/23 03:37:40;;;;;;;5.38;3.25;;;;;;;10.12;83.45;99427.38;4827591;29;20062;-62
2021/05/23 03:40:14;;;;;;;7.67;4.17;;;;;;;10.11;83.05;99415.41;4827518;29;20058;-62
2021/05/23 03:42:48;;;;;;;6.32;3.70;;;;;;;10.18;83.94;99419.69;4827489;29;20293;-62
2021/05/23 03:45:24;;;;;;;6.53;3.40;;;;;;;10.19;83.91;99418.84;4827332;29;20042;-62
2021/05/23 03:47:56;;;;;;;6.53;3.92;;;;;;;10.10;83.23;99399.28;4827390;29;20063;-63
2021/05/23 03:50:26;;;;;;;8.10;3.80;;;;;;;9.94;83.95;99397.63;4826877;29;20050;-62
2021/05/23 03:52:58;;;;;;;6.18;3.63;;;;;;;9.93;83.59;99402.75;4827274;29;20054;-62
2021/05/23 03:55:31;;;;;;;7.25;3.15;;;;;;;10.05;84.75;99418.00;4826943;29;20062;-62
2021/05/23 03:58:07;;;;;;;7.20;3.50;;;;;;;10.08;84.21;99408.63;4827225;29;20087;-63
2021/05/23 04:00:39;;;;;;;6.43;3.70;;;;;;;10.01;84.32;99380.59;4827202;29;20069;-63
2021/05/23 04:03:14;;;;;;;6.20;3.85;;;;;;;9.95;84.53;99378.94;4827157;29;20062;-63
2021/05/23 04:05:43;;;;;;;5.32;3.58;;;;;;;10.01;84.92;99386.56;4826987;29;20489;-62
2021/05/23 04:08:18;;;;;;;7.70;3.77;;;;;;;9.89;84.81;99401.03;4827049;29;20497;-62
2021/05/23 04:10:55;;;;;;;7.93;3.78;;;;;;;9.99;85.25;99411.22;4825937;29;20091;-63
2021/05/23 04:13:26;;;;;;;6.35;4.00;;;;;;;10.09;85.07;99412.03;4827305;29;20449;-63
2021/05/23 04:16:01;;;;;;;5.85;3.17;;;;;;;10.14;84.96;99417.16;4826941;29;20548;-62
2021/05/23 04:18:30;;;;;;;8.20;3.63;;;;;;;10.23;84.74;99422.22;4826968;29;20074;-62
2021/05/23 04:21:05;;;;;;;5.72;3.30;;;;;;;10.33;85.39;99427.28;4826877;29;20046;-62
2021/05/23 04:23:38;;;;;;;7.55;3.42;;;;;;;10.40;84.91;99426.41;4826864;29;20111;-62
2021/05/23 04:26:10;;;;;;;5.95;2.88;;;;;;;10.46;84.80;99423.81;4826645;29;20050;-62
2021/05/23 04:28:44;;;;;;;6.15;2.92;;;;;;;10.53;84.82;99429.75;4826810;29;20054;-63
2021/05/23 04:31:18;;;;;;;4.90;2.58;;;;;;;10.54;84.84;99411.88;4826416;29;20059;-63
2021/05/23 04:33:54;;;;;;;5.80;3.00;;;;;;;10.64;84.84;99413.53;4827019;29;20058;-63
2021/05/23 04:36:27;;;;;;;5.55;3.17;;;;;;;10.63;84.21;99422.03;4826622;29;20059;-62
2021/05/23 04:38:59;;;;;;;4.75;2.67;;;;;;;10.67;84.17;99422.88;4826692;29;20077;-63
2021/05/23 04:41:28;;;;;;;5.70;2.78;;;;;;;10.72;84.29;99416.88;4826623;29;20065;-63
2021/05/23 04:43:58;;;;;;;5.03;2.10;;;;;;;10.73;83.87;99407.50;4826529;29;20081;-63
2021/05/23 04:46:30;;;;;;;5.38;2.33;;;;;;;10.72;83.58;99399.00;4826293;29;20394;-62
2021/05/23 04:49:00;;;;;;;4.90;2.80;;;;;;;10.77;84.20;99409.22;4826148;29;20080;-63
2021/05/23 04:51:29;;;;;;;5.30;2.90;;;;;;;10.82;83.77;99416.84;4826383;29;20065;-63
2021/05/23 04:54:01;;;;;;;6.18;2.70;;;;;;;10.85;83.33;99419.34;4826129;29;20290;-63
2021/05/23 04:56:33;;;;;;;4.90;2.60;;;;;;;10.90;83.38;99415.06;4826225;29;20050;-62
2021/05/23 04:59:03;;;;;;;5.40;2.97;;;;;;;10.90;82.76;99409.97;4826336;29;20171;-63
2021/05/23 05:01:36;;;;;;;4.43;2.72;;;;;;;10.91;82.49;99419.31;4826214;29;20054;-63
2021/05/23 05:04:08;;;;;;;6.95;2.88;;;;;;;10.97;82.44;99416.72;4826529;29;20066;-63
2021/05/23 05:06:39;;;;;;;6.63;2.85;;;;;;;11.00;82.42;99421.81;4826089;29;20054;-62
2021/05/23 05:09:11;;;;;;;5.25;2.92;;;;;;;11.00;82.33;99411.59;4825881;29;20105;-62
2021/05/23 05:11:44;;;;;;;7.53;3.05;;;;;;;11.01;82.29;99414.16;4826391;29;20049;-62
2021/05/23 05:14:17;;;;;;;5.43;2.88;;;;;;;11.08;81.69;99423.47;4826096;29;20062;-62
2021/05/23 05:16:47;;;;;;;5.05;2.75;;;;;;;11.15;81.70;99437.91;4826013;29;20066;-62
2021/05/23 05:19:19;;;;;;;6.43;2.85;;;;;;;11.21;81.46;99431.88;4825989;29;20497;-63
2021/05/23 05:21:49;;;;;;;5.00;3.00;;;;;;;11.28;82.08;99443.75;4826012;29;20058;-63
2021/05/23 05:24:18;;;;;;;5.90;2.92;;;;;;;11.31;81.87;99438.63;4825912;29;20062;-63
2021/05/23 05:26:47;;;;;;;5.40;2.93;;;;;;;11.31;81.41;99434.38;4825644;29;20130;-62
2021/05/23 05:29:21;;;;;;;5.25;3.00;;;;;;;11.29;81.65;99451.41;4825819;29;20046;-63
2021/05/23 05:31:54;;;;;;;5.78;2.80;;;;;;;11.30;81.73;99444.59;4824677;29;20521;-63
2021/05/23 05:34:26;;;;;;;6.15;2.80;;;;;;;11.38;81.69;99458.16;4825786;29;20066;-63
2021/05/23 05:36:55;;;;;;;7.18;3.10;;;;;;;11.43;81.80;99453.84;4825717;29;20058;-62
2021/05/23 05:39:24;;;;;;;4.97;2.70;;;;;;;11.45;81.93;99459.78;4824486;29;20050;-62
2021/05/23 05:41:54;;;;;;;6.25;2.90;;;;;;;11.48;81.71;99462.34;4825462;29;20505;-62
2021/05/23 05:44:23;;;;;;;5.60;2.92;;;;;;;11.54;81.61;99462.28;4824667;29;20050;-62
2021/05/23 05:46:52;;;;;;;;;;;;;;;11.57;81.58;99462.25;4825812;29;20054;-62
2021/05/23 05:49:21;;;;;;;5.43;2.63;;;;;;;11.63;81.66;99469.88;4824746;29;20019;-62
2021/05/23 05:51:50;;;;;;;3.50;2.15;;;;;;;11.57;81.54;99467.38;4825449;29;20441;-61
2021/05/23 05:54:25;;;;;;;4.85;2.80;;;;;;;11.62;81.36;99470.75;4825658;29;20058;-61
2021/05/23 05:56:54;;;;;;;5.00;2.72;;;;;;;11.67;81.42;99479.22;4825457;29;20054;-61
2021/05/23 05:59:45;;;;;;;5.53;2.92;;;;;;;11.67;81.22;99479.22;4825373;29;20081;-61
2021/05/23 06:02:14;;;;;;;5.03;2.83;;;;;;;11.73;81.40;99489.44;4825314;29;20062;-61
2021/05/23 06:04:46;;;;;;;4.57;2.38;;;;;;;11.80;81.19;99473.19;4825186;29;20058;-61
2021/05/23 06:07:15;;;;;;;5.57;3.08;;;;;;;11.86;81.28;99480.78;4825031;29;20041;-61
2021/05/23 06:09:47;;;;;;;6.28;3.63;;;;;;;11.86;80.87;99473.13;4823875;29;20568;-61
2021/05/23 06:12:18;;;;;;;5.93;2.92;;;;;;;11.94;81.08;99473.91;4825381;29;20047;-61
2021/05/23 06:14:48;;;;;;;6.72;3.10;;;;;;;12.01;81.21;99467.84;4823775;29;20404;-61
2021/05/23 06:17:16;;;;;;;6.13;3.35;;;;;;;12.12;81.07;99477.13;4824699;29;20512;-61
2021/05/23 06:19:47;;;;;;;8.68;2.80;;;;;;;12.14;80.75;99480.53;4824249;29;20455;-61
2021/05/23 06:22:16;;;;;;;5.13;2.88;;;;;;;12.16;80.56;99489.03;4824624;29;20072;-61
2021/05/23 06:24:48;;;;;;;6.13;3.40;;;;;;;12.20;80.32;99477.88;4824915;29;20058;-61
2021/05/23 06:27:20;;;;;;;5.43;2.92;;;;;;;12.29;80.64;99480.34;4824350;29;20513;-61
2021/05/23 06:29:50;;;;;;;6.72;3.45;;;;;;;12.32;80.68;99485.44;4824334;29;20149;-63
2021/05/23 06:32:20;;;;;;;5.50;3.10;;;;;;;12.38;80.71;99475.16;4824907;29;20220;-61
2021/05/23 06:34:48;;;;;;;3.88;2.13;;;;;;;12.44;80.70;99470.81;4824494;29;20081;-61
2021/05/23 06:37:17;;;;;;;5.68;3.13;;;;;;;12.48;80.63;99467.31;4823595;29;20046;-61
2021/05/23 06:39:46;;;;;;;6.20;2.77;;;;;;;12.39;80.53;99461.47;4824678;29;20122;-61
2021/05/23 06:42:15;;;;;;;4.78;2.60;;;;;;;12.33;80.47;99461.56;4824434;29;20062;-61
2021/05/23 06:44:45;;;;;;;5.40;3.00;;;;;;;12.39;80.38;99466.59;4824800;29;20053;-61
2021/05/23 06:47:15;;;;;;;4.43;2.75;;;;;;;12.44;80.35;99464.81;4824112;29;20306;-62
2021/05/23 06:49:44;;;;;;;4.75;2.67;;;;;;;12.49;80.46;99465.63;4824100;29;20111;-62
2021/05/23 06:52:13;;;;;;;5.15;3.10;;;;;;;12.54;80.18;99476.66;4824409;29;20103;-61
2021/05/23 06:54:42;;;;;;;6.60;2.90;;;;;;;12.55;80.39;99473.22;4824439;29;20042;-61
2021/05/23 06:57:14;;;;;;;5.18;2.58;;;;;;;12.63;80.32;99476.53;4827821;29;20769;-62
2021/05/23 06:59:43;;;;;;;7.05;4.15;;;;;;;12.74;80.50;99474.72;4828339;29;20063;-61
2021/05/23 07:02:11;;;;;;;4.28;3.00;;;;;;;12.83;80.55;99466.91;4828251;29;20125;-61
2021/05/23 07:04:44;;;;;;;5.65;3.67;;;;;;;12.78;80.62;99461.00;4828129;29;20058;-61
2021/05/23 07:07:16;;;;;;;8.07;3.50;;;;;;;12.77;80.33;99469.53;4828128;29;20128;-61
2021/05/23 07:09:45;;;;;;;5.18;2.90;;;;;;;12.64;80.09;99478.25;4828116;29;20046;-61
2021/05/23 07:12:15;;;;;;;6.35;3.25;;;;;;;12.61;80.13;99470.59;4827987;29;20130;-61
2021/05/23 07:14:47;;;;;;;5.43;3.05;;;;;;;12.61;80.20;99480.84;4827987;29;20090;-61
2021/05/23 07:17:19;;;;;;;6.65;3.10;;;;;;;12.55;80.52;99475.78;4827957;29;20507;-61
2021/05/23 07:19:49;;;;;;;6.65;3.63;;;;;;;12.61;80.46;99484.25;4827954;29;20055;-61
2021/05/23 07:22:21;;;;;;;4.85;2.85;;;;;;;12.73;80.85;99488.38;4827830;29;20054;-61
2021/05/23 07:24:52;;;;;;;4.80;2.80;;;;;;;12.78;80.92;99481.47;4827815;29;20128;-61
2021/05/23 07:27:24;;;;;;;6.05;3.50;;;;;;;12.86;81.43;99479.63;4827560;29;20497;-61
2021/05/23 07:29:54;;;;;;;6.30;3.20;;;;;;;12.95;81.29;99483.81;4827589;29;20062;-61
2021/05/23 07:32:25;;;;;;;5.70;2.88;;;;;;;12.95;81.34;99487.22;4827423;29;20450;-62
2021/05/23 07:34:56;;;;;;;7.40;2.70;;;;;;;12.94;81.59;99482.09;4827279;29;20123;-62
2021/05/23 07:37:25;;;;;;;4.65;2.75;;;;;;;12.94;81.63;99485.53;4827246;29;20063;-61
2021/05/23 07:39:55;;;;;;;5.65;2.88;;;;;;;12.92;81.64;99482.13;4827432;29;20054;-61
2021/05/23 07:42:24;;;;;;;3.90;2.42;;;;;;;12.83;81.79;99486.53;4827219;29;20050;-61
2021/05/23 07:44:53;;;;;;;;;;;;;;;12.85;81.33;99493.34;4827779;29;20058;-61
2021/05/23 07:47:22;;;;;;;4.80;2.78;;;;;;;12.89;81.39;99494.97;4827376;29;19985;-61
2021/05/23 07:49:51;;;;;;;4.63;2.55;;;;;;;12.88;81.40;99501.00;4826875;29;20418;-61
2021/05/23 07:52:21;;;;;;;3.53;2.10;;;;;;;12.88;81.55;99503.53;4827067;29;20047;-62
2021/05/23 07:54:50;;;;;;;4.75;3.20;;;;;;;12.98;81.49;99505.09;4827341;29;20062;-61
2021/05/23 07:57:20;;;;;;;4.82;2.67;;;;;;;13.02;81.44;99501.66;4826089;29;20078;-61
2021/05/23 07:59:48;;;;;;;4.85;2.67;;;;;;;13.01;81.57;99494.81;4827166;29;20137;-61
2021/05/23 08:02:17;;;;;;;5.63;2.80;;;;;;;13.08;81.20;99500.72;4827109;29;20046;-61
2021/05/23 08:04:46;;;;;;;4.40;2.58;;;;;;;13.06;81.16;99513.56;4827112;29;20485;-61
2021/05/23 08:07:15;;;;;;;5.65;2.83;;;;;;;13.01;80.81;99514.47;4826692;29;20084;-61
2021/05/23 08:09:45;;;;;;;4.20;2.70;;;;;;;12.97;80.90;99528.19;4827022;29;20401;-61
2021/05/23 08:12:13;;;;;;;;;;;;;;;12.93;80.88;99532.50;4827185;29;20569;-61
2021/05/23 08:14:42;;;;;;;7.45;3.75;;;;;;;12.93;81.01;99532.50;4826878;29;19981;-61
2021/05/23 08:17:11;;;;;;;7.20;3.33;;;;;;;12.88;81.31;99529.16;4826916;29;20046;-61
2021/05/23 08:19:44;;;;;;;5.82;3.13;;;;;;;12.83;81.28;99540.31;4826854;29;20517;-61
2021/05/23 08:22:16;;;;;;;5.35;2.60;;;;;;;12.80;81.53;99541.22;4826801;29;20054;-62
2021/05/23 08:24:46;;;;;;;4.03;2.10;;;;;;;12.65;81.45;99526.88;4826879;29;20090;-62
2021/05/23 08:27:15;;;;;;;3.10;2.00;;;;;;;12.59;81.54;99542.31;4826697;29;20100;-62
2021/05/23 08:29:44;;;;;;;4.38;1.70;;;;;;;12.55;81.78;99545.75;4826719;29;20058;-62
2021/05/23 08:32:16;;;;;;;3.73;1.90;;;;;;;12.54;81.99;99538.09;4826558;29;20049;-62
2021/05/23 08:34:48;;;;;;;2.70;1.63;;;;;;;12.58;82.07;99543.16;4826466;29;20046;-63
2021/05/23 08:37:18;;;;;;;5.18;1.88;;;;;;;12.58;82.08;99550.00;4826399;29;20466;-62
2021/05/23 08:39:48;;;;;;;4.43;1.95;;;;;;;12.61;82.27;99544.84;4826516;29;20052;-62
2021/05/23 08:42:17;;;;;;;5.88;2.00;;;;;;;12.70;82.25;99549.84;4826617;29;20069;-62
2021/05/23 08:44:49;;;;;;;3.83;2.17;;;;;;;12.73;82.25;99549.81;4826771;29;20410;-63
2021/05/23 08:47:18;;;;;;;4.60;2.20;;;;;;;12.75;82.24;99545.53;4826513;29;20457;-63
2021/05/23 08:49:51;;;;;;;3.65;2.17;;;;;;;12.82;82.28;99544.59;4826178;29;20050;-62
2021/05/23 08:52:20;;;;;;;3.88;2.22;;;;;;;12.89;82.27;99541.09;4826693;29;20505;-63
2021/05/23 08:54:53;;;;;;;5.57;2.53;;;;;;;12.96;82.17;99541.84;4826415;29;20078;-63
2021/05/23 08:57:25;;;;;;;4.85;2.65;;;;;;;13.04;82.37;99530.66;4826321;29;20050;-63
2021/05/23 08:59:57;;;;;;;5.82;3.05;;;;;;;13.06;81.90;99538.34;4826341;29;20070;-63
2021/05/23 09:02:26;;;;;;;5.28;3.10;;;;;;;13.08;82.10;99545.13;4826224;29;20061;-63
2021/05/23 09:04:56;;;;;;;5.43;2.88;;;;;;;13.09;82.18;99544.28;4826191;29;20089;-63
2021/05/23 09:07:25;;;;;;;5.90;2.97;;;;;;;13.13;82.32;99551.06;4825999;29;20448;-63
2021/05/23 09:09:55;;;;;;;4.65;2.67;;;;;;;13.19;82.56;99540.75;4826348;29;20111;-63
2021/05/23 09:12:27;;;;;;;4.95;3.13;;;;;;;13.20;82.29;99552.66;4825856;29;20050;-64
2021/05/23 09:14:56;;;;;;;5.00;3.05;;;;;;;13.19;82.45;99545.88;4826021;29;20062;-63
2021/05/23 09:17:27;;;;;;;3.60;2.07;;;;;;;13.16;82.57;99545.03;4825917;29;20066;-63
2021/05/23 09:19:57;;;;;;;4.15;2.60;;;;;;;13.08;82.21;99547.69;4825495;29;20056;-63
2021/05/23 09:22:28;;;;;;;6.85;2.92;;;;;;;13.02;82.45;99541.78;4825624;29;20481;-64
2021/05/23 09:25:05;;;;;;;4.47;2.55;;;;;;;13.00;82.96;99549.50;4825953;29;20124;-63
2021/05/23 09:27:34;;;;;;;4.75;2.85;;;;;;;13.04;82.87;99540.03;4825797;29;20497;-63
2021/05/23 09:30:10;;;;;;;;;;;;;;;13.08;82.86;99546.84;4825182;29;20439;-63
2021/05/23 09:32:44;;;;;;;7.22;3.22;;;;;;;13.08;83.94;99547.69;4826146;29;19932;-64
2021/05/23 09:35:15;;;;;;;6.38;2.75;;;;;;;13.09;83.49;99554.53;4825742;29;20124;-63
2021/05/23 09:37:56;;;;;;;8.32;3.25;;;;;;;13.05;83.45;99552.81;4825407;29;20058;-64
2021/05/23 09:40:27;;;;;;;6.75;2.78;;;;;;;13.03;83.53;99566.56;4825132;29;20089;-64
2021/05/23 09:42:56;;;;;;;10.15;3.10;;;;;;;12.99;83.51;99568.28;4824862;29;20057;-63
2021/05/23 09:45:38;;;;;;;5.80;3.47;;;;;;;12.98;83.66;99566.59;4825564;29;20074;-66
2021/05/23 09:48:18;;;;;;;6.28;3.17;;;;;;;12.97;83.56;99566.63;4825296;29;20054;-64
2021/05/23 09:50:48;;;;;;;5.75;3.35;;;;;;;12.93;83.81;99572.66;4825160;29;20058;-63
2021/05/23 09:53:23;;;;;;;5.07;2.65;;;;;;;12.90;83.77;99568.41;4825488;29;20065;-64
2021/05/23 09:56:00;;;;;;;5.40;2.88;;;;;;;12.95;83.76;99566.66;4825556;29;20463;-64
2021/05/23 09:58:31;;;;;;;6.65;3.20;;;;;;;12.95;84.12;99561.53;4825509;29;20108;-64
2021/05/23 10:00:59;;;;;;;6.05;3.20;;;;;;;12.97;83.92;99562.34;4825450;29;20058;-64
2021/05/23 10:03:33;;;;;;;5.20;2.90;;;;;;;13.00;84.09;99557.19;4825309;29;20390;-63
2021/05/23 10:06:08;;;;;;;6.63;3.63;;;;;;;13.07;84.29;99573.34;4825236;29;20580;-63
2021/05/23 10:08:38;;;;;;;4.85;2.80;;;;;;;13.13;84.60;99570.69;4825140;29;20468;-63
2021/05/23 10:11:11;;;;;;;4.25;2.55;;;;;;;13.17;84.42;99557.81;4825218;29;20057;-63
2021/05/23 10:13:40;;;;;;;6.72;3.00;;;;;;;13.19;84.48;99556.13;4825239;29;20105;-64
2021/05/23 10:16:27;;;;;;;5.43;2.53;;;;;;;13.16;84.61;99545.91;4825294;29;20058;-64
2021/05/23 10:18:58;;;;;;;4.97;2.47;;;;;;;13.14;84.51;99539.09;4823943;29;20085;-64
2021/05/23 10:21:30;;;;;;;4.70;2.65;;;;;;;13.12;84.47;99543.41;4825163;29;20501;-64
2021/05/23 10:24:03;;;;;;;4.15;2.40;;;;;;;13.14;84.64;99537.38;4824817;29;20070;-63
2021/05/23 10:26:57;;;;;;;8.20;4.70;;;;;;;13.17;84.69;99529.63;4824924;29;20050;-64
2021/05/23 10:29:27;;;;;;;5.40;2.80;;;;;;;13.16;84.49;99539.91;4824903;29;20134;-64
2021/05/23 10:32:05;;;;;;;;;;;;;;;13.14;84.68;99542.50;4824914;29;20054;-64
2021/05/23 10:34:39;;;;;;;3.88;1.73;;;;;;;13.11;84.71;99547.66;4825057;29;19924;-64
2021/05/23 10:37:08;;;;;;;4.22;1.70;;;;;;;12.98;84.46;99537.59;4824797;29;20069;-66
2021/05/23 10:39:39;;;;;;;2.85;1.65;;;;;;;12.96;84.30;99550.38;4825134;29;20054;-66
2021/05/23 10:42:13;;;;;;;5.28;1.98;;;;;;;12.95;84.35;99555.53;4824961;29;20058;-64
2021/05/23 10:44:45;;;;;;;2.65;1.77;;;;;;;12.90;84.00;99555.59;4824871;29;20050;-64
2021/05/23 10:47:16;;;;;;;3.67;2.03;;;;;;;12.88;83.94;99553.94;4824750;29;20058;-65
2021/05/23 10:49:56;;;;;;;3.10;1.70;;;;;;;12.87;83.97;99560.75;4824519;29;20497;-65
2021/05/23 10:52:29;;;;;;;4.25;1.65;;;;;;;12.88;83.80;99559.91;4824784;29;20062;-65
2021/05/23 10:55:05;;;;;;;4.80;2.33;;;;;;;12.85;83.64;99565.06;4824707;29;20096;-65
2021/05/23 10:57:47;;;;;;;3.28;1.75;;;;;;;12.79;83.25;99560.84;4824348;29;20065;-65
2021/05/23 11:00:21;;;;;;;2.63;1.30;;;;;;;12.75;83.21;99558.34;4824721;29;20096;-65
2021/05/23 11:02:54;;;;;;;4.28;1.40;;;;;;;12.71;83.07;99562.66;4824675;29;20064;-65
2021/05/23 11:05:25;;;;;;;2.67;1.50;;;;;;;12.68;82.84;99561.84;4824609;29;20085;-65
2021/05/23 11:07:56;;;;;;;3.35;1.45;;;;;;;12.64;82.62;99561.00;4824383;29;20051;-64
2021/05/23 11:10:27;;;;;;;2.58;1.25;;;;;;;12.61;82.61;99565.31;4824570;29;20081;-65
2021/05/23 11:13:01;;;;;;;2.70;1.50;;;;;;;12.57;82.34;99551.69;4824397;29;20058;-65
2021/05/23 11:15:43;;;;;;;2.33;1.33;;;;;;;12.59;82.12;99536.34;4824725;29;20058;-65
2021/05/23 11:18:16;;;;;;;2.85;1.40;;;;;;;12.60;81.96;99545.69;4824232;29;20085;-65
2021/05/23 11:20:56;;;;;;;2.50;1.30;;;;;;;12.59;82.14;99556.81;4824091;29;20143;-65
2021/05/23 11:23:26;;;;;;;2.75;1.33;;;;;;;12.59;81.76;99562.78;4824435;29;20465;-65
2021/05/23 11:26:16;;;;;;;2.03;1.00;;;;;;;12.53;81.76;99570.53;4824435;29;20050;-64
2021/05/23 11:28:53;;;;;;;2.65;1.13;;;;;;;12.47;81.54;99577.44;4816931;29;20050;-64
2021/05/23 11:31:25;;;;;;;1.58;1.05;;;;;;;12.44;81.67;99592.81;4824441;29;20066;-64
2021/05/23 11:33:55;;;;;;;2.92;1.20;;;;;;;12.43;81.87;99598.81;4824359;29;20058;-64
2021/05/23 11:36:25;;;;;;;2.65;1.33;;;;;;;12.41;81.99;99614.16;4824302;29;20051;-65
2021/05/23 11:38:58;;;;;;;2.25;1.30;;;;;;;12.45;81.68;99620.13;4824483;29;20521;-64
2021/05/23 11:41:32;;;;;;;3.45;1.50;;;;;;;12.49;81.71;99611.53;4824216;29;20486;-65
2021/05/23 11:44:07;;;;;;;3.95;1.73;;;;;;;12.53;81.73;99608.06;4827088;29;20401;-65
2021/05/23 11:46:40;;;;;;;10.10;2.78;;;;;;;12.53;81.67;99610.63;4827430;29;20062;-64
2021/05/23 11:49:17;;;;;;;4.40;2.20;;;;;;;12.55;81.70;99607.19;4827232;29;20058;-66
2021/05/23 11:51:50;;;;;;;3.03;1.42;;;;;;;12.62;81.81;99605.44;4827235;29;20129;-64
2021/05/23 11:54:18;;;;;;;5.38;2.45;;;;;;;12.62;81.78;99608.81;4827662;29;20087;-65
2021/05/23 11:56:51;;;;;;;4.13;2.20;;;;;;;12.67;82.24;99612.19;4827610;29;20072;-65
2021/05/23 11:59:21;;;;;;;4.50;1.65;;;;;;;12.74;81.82;99618.13;4827205;29;20066;-64